Vacarisses (Vallès Occidental)





Hora UTC 16:25
Temperatura 19.3 ºC
Humitat 47.0 %
Pressió 1011.7 hPa
Pluja 0.0 mm
Velocitat vent 11.1 km/h
Direcció vent

Dades diàries 2024-04-16



Hora UTC (hivern +1h; estiu +2h)
Temperatura (ºC) Humitat (%) Pressió (hPa) Velocitat vent (km/h) Precipitació (mm)
Hora UTC Aire Humitat Pressió Vel. Dir. Vel. Max Dir. Intent. màx 5 min.
00:05 13.6 77.0 1017.6 1.4 1.4 0.0
00:15 12.9 78.0 1017.4 0.3 13.9 0.0
00:25 12.2 80.0 1017.3 1.7 13.9 0.0
00:35 12.3 81.0 1017.4 1.2 13.9 0.0
00:45 12.3 81.0 1017.4 1.2 13.9 0.0
00:55 11.7 81.0 1017.1 1.9 13.9 0.0
01:05 11.3 83.0 1017.0 2.1 13.9 0.0
01:15 11.3 83.0 1017.0 2.1 13.9 0.0
01:25 11.1 81.0 1016.7 3.4 13.9 0.0
01:35 10.8 80.0 1016.6 1.5 13.9 0.0
01:45 10.8 80.0 1016.6 1.5 13.9 0.0
01:55 11.8 69.0 1016.6 2.2 13.9 0.0
02:05 12.4 61.0 1016.5 5.1 13.9 0.0
02:15 12.4 61.0 1016.5 5.1 13.9 0.0
02:25 12.6 59.0 1016.5 5.1 14.4 0.0
02:35 12.3 59.0 1016.5 6.9 14.4 0.0
02:45 12.3 59.0 1016.5 6.9 14.4 0.0
02:55 11.9 61.0 1016.5 3.4 14.4 0.0
03:05 11.5 64.0 1016.4 4.4 14.4 0.0
03:15 11.5 64.0 1016.4 4.4 14.4 0.0
03:25 11.4 64.0 1016.4 5.9 14.4 0.0
03:45 11.4 64.0 1016.4 5.9 14.4 0.0
03:55 10.9 63.0 1016.4 5.0 14.4 0.0
04:05 10.7 64.0 1016.4 3.5 14.4 0.0
04:15 10.7 64.0 1016.4 3.5 14.4 0.0
04:25 10.5 64.0 1016.1 3.1 14.4 0.0
04:35 10.3 64.0 1016.1 8.9 14.4 0.0
04:45 10.3 64.0 1016.1 8.9 14.4 0.0
04:55 10.2 65.0 1016.1 4.1 14.4 0.0
05:05 10.2 65.0 1016.1 4.1 14.4 0.0
05:15 10.2 65.0 1016.0 7.3 14.4 0.0
05:25 10.2 66.0 1016.2 4.5 14.6 0.0
05:35 10.2 66.0 1016.2 4.5 14.6 0.0
05:45 10.3 66.0 1016.3 5.1 14.6 0.0
05:55 10.2 66.0 1016.2 5.0 14.6 0.0
06:05 10.2 66.0 1016.2 5.0 14.6 0.0
06:15 10.2 67.0 1016.3 4.5 14.6 0.0
06:25 10.2 68.0 1016.1 5.2 14.6 0.0
06:35 10.6 67.0 1016.2 8.0 17.2 0.0
06:45 10.6 67.0 1016.2 8.0 17.2 0.0
06:55 10.8 66.0 1016.2 5.4 17.2 0.0
07:05 10.8 66.0 1016.2 5.4 17.2 0.0
07:15 10.9 67.0 1016.1 4.9 17.2 0.0
07:25 11.5 66.0 1015.9 8.7 17.2 0.0
07:35 12.1 64.0 1015.9 5.7 17.2 0.0
07:45 12.1 64.0 1015.9 5.7 17.2 0.0
07:55 12.3 64.0 1015.7 7.1 21.3 0.0
08:05 12.3 64.0 1015.7 7.1 21.3 0.0
08:15 12.9 62.0 1015.8 9.1 21.3 0.0
08:25 13.1 61.0 1015.8 8.0 21.3 0.0
08:35 13.1 61.0 1015.8 8.0 21.3 0.0
08:45 14.1 59.0 1015.8 5.7 21.3 0.0
08:55 14.7 58.0 1015.6 6.0 21.3 0.0
09:05 15.0 56.0 1015.6 6.5 21.3 0.0
09:15 15.0 56.0 1015.6 6.5 21.3 0.0
09:25 15.4 55.0 1015.5 6.0 21.3 0.0
09:35 15.4 55.0 1015.5 6.0 21.3 0.0
09:55 16.6 52.0 1015.2 5.8 21.3 0.0
10:05 17.2 50.0 1015.1 8.9 21.3 0.0
10:15 17.2 50.0 1015.1 8.9 21.3 0.0
10:25 17.4 50.0 1015.0 4.1 21.3 0.0
10:35 17.6 49.0 1014.8 5.6 21.3 0.0
10:45 17.6 49.0 1014.8 5.6 21.3 0.0
10:55 18.9 47.0 1014.6 5.6 21.3 0.0
11:05 18.9 47.0 1014.6 5.6 21.3 0.0
11:15 19.5 45.0 1014.3 3.5 21.3 0.0
11:25 20.2 44.0 1014.2 3.9 21.3 0.0
11:35 20.2 43.0 1013.9 5.2 21.3 0.0
11:45 20.2 43.0 1013.9 5.2 21.3 0.0
11:55 20.8 42.0 1013.5 14.2 21.3 0.0
12:05 20.8 42.0 1013.5 14.2 21.3 0.0
12:15 21.2 41.0 1013.3 15.4 21.3 0.0
12:25 21.3 41.0 1013.2 5.5 21.3 0.0
12:35 21.3 41.0 1013.2 5.5 21.3 0.0
12:45 22.2 40.0 1013.1 5.6 21.3 0.0
12:55 22.1 39.0 1012.9 8.1 21.3 0.0
13:05 21.9 38.0 1012.8 9.1 21.3 0.0
13:15 21.9 38.0 1012.8 9.1 21.3 0.0
13:25 21.8 38.0 1012.7 8.0 21.6 0.0
13:35 22.7 36.0 1012.3 9.9 21.6 0.0
13:45 22.7 36.0 1012.3 9.9 21.6 0.0
13:55 22.8 36.0 1012.1 5.1 21.6 0.0
14:05 22.8 36.0 1012.1 5.1 21.6 0.0
14:15 23.3 36.0 1011.9 10.5 21.6 0.0
14:25 22.6 38.0 1011.9 10.5 22.3 0.0
14:35 22.6 38.0 1011.9 10.5 22.3 0.0
14:45 22.7 40.0 1011.7 13.1 22.3 0.0
14:55 22.1 42.0 1011.5 10.1 22.3 0.0
15:05 22.1 42.0 1011.5 10.1 22.3 0.0
15:15 21.2 43.0 1011.5 10.6 22.3 0.0
15:25 20.8 44.0 1011.6 11.6 22.3 0.0
15:35 20.8 44.0 1011.6 11.6 22.3 0.0
15:45 20.6 43.0 1011.5 10.1 22.3 0.0
15:55 19.9 45.0 1011.6 12.8 25.7 0.0
16:05 19.9 45.0 1011.6 12.8 25.7 0.0
16:15 19.6 46.0 1011.6 12.2 28.2 0.0
16:25 19.3 47.0 1011.7 11.1 28.2 0.0
Màxima 23.3 83.0 1017.6 15.4 28.2 0.0
Mínima 10.2 36.0 1011.5
Total 0.0